sensor_id;sensor_type;location;lat;lon;timestamp;P1;durP1;ratioP1;P2;durP2;ratioP2
75655;SDS011;64252;51.094;13.714;2023-03-07T00:00:46;20.90;;;10.02;;
75655;SDS011;64252;51.094;13.714;2023-03-07T00:03:12;19.27;;;8.43;;
75655;SDS011;64252;51.094;13.714;2023-03-07T00:05:38;22.67;;;9.88;;
75655;SDS011;64252;51.094;13.714;2023-03-07T00:08:04;15.88;;;7.53;;
75655;SDS011;64252;51.094;13.714;2023-03-07T00:10:30;19.80;;;8.85;;
75655;SDS011;64252;51.094;13.714;2023-03-07T00:12:56;17.80;;;7.95;;
75655;SDS011;64252;51.094;13.714;2023-03-07T00:15:21;19.00;;;8.73;;
75655;SDS011;64252;51.094;13.714;2023-03-07T00:17:47;18.85;;;8.77;;
75655;SDS011;64252;51.094;13.714;2023-03-07T00:20:13;20.88;;;8.88;;
75655;SDS011;64252;51.094;13.714;2023-03-07T00:22:39;23.65;;;10.55;;
75655;SDS011;64252;51.094;13.714;2023-03-07T00:25:06;19.90;;;9.38;;
75655;SDS011;64252;51.094;13.714;2023-03-07T00:27:32;17.75;;;8.13;;
75655;SDS011;64252;51.094;13.714;2023-03-07T00:29:58;15.55;;;7.13;;
75655;SDS011;64252;51.094;13.714;2023-03-07T00:32:24;17.63;;;8.77;;
75655;SDS011;64252;51.094;13.714;2023-03-07T00:34:50;20.30;;;9.68;;
75655;SDS011;64252;51.094;13.714;2023-03-07T00:37:15;22.15;;;10.30;;
75655;SDS011;64252;51.094;13.714;2023-03-07T00:39:41;19.80;;;8.07;;
75655;SDS011;64252;51.094;13.714;2023-03-07T00:42:10;18.27;;;7.60;;
75655;SDS011;64252;51.094;13.714;2023-03-07T00:44:36;16.75;;;8.27;;
75655;SDS011;64252;51.094;13.714;2023-03-07T00:47:02;18.20;;;8.25;;
75655;SDS011;64252;51.094;13.714;2023-03-07T00:49:27;20.52;;;8.75;;
75655;SDS011;64252;51.094;13.714;2023-03-07T00:51:53;19.45;;;8.00;;
75655;SDS011;64252;51.094;13.714;2023-03-07T00:54:18;18.33;;;8.50;;
75655;SDS011;64252;51.094;13.714;2023-03-07T00:56:44;16.52;;;6.93;;
75655;SDS011;64252;51.094;13.714;2023-03-07T00:59:10;16.27;;;7.03;;
75655;SDS011;64252;51.094;13.714;2023-03-07T01:01:36;18.77;;;8.15;;
75655;SDS011;64252;51.094;13.714;2023-03-07T01:04:02;15.50;;;6.70;;
75655;SDS011;64252;51.094;13.714;2023-03-07T01:06:29;17.98;;;8.50;;
75655;SDS011;64252;51.094;13.714;2023-03-07T01:09:00;19.35;;;8.90;;
75655;SDS011;64252;51.094;13.714;2023-03-07T01:11:34;18.73;;;8.40;;
75655;SDS011;64252;51.094;13.714;2023-03-07T01:14:01;17.15;;;7.60;;
75655;SDS011;64252;51.094;13.714;2023-03-07T01:16:36;15.27;;;7.28;;
75655;SDS011;64252;51.094;13.714;2023-03-07T01:19:04;15.07;;;6.95;;
75655;SDS011;64252;51.094;13.714;2023-03-07T01:21:32;19.45;;;8.30;;
75655;SDS011;64252;51.094;13.714;2023-03-07T01:24:02;19.67;;;8.77;;
75655;SDS011;64252;51.094;13.714;2023-03-07T01:26:29;18.13;;;8.85;;
75655;SDS011;64252;51.094;13.714;2023-03-07T01:28:58;19.58;;;8.77;;
75655;SDS011;64252;51.094;13.714;2023-03-07T01:31:26;20.45;;;9.07;;
75655;SDS011;64252;51.094;13.714;2023-03-07T01:33:55;18.95;;;7.85;;
75655;SDS011;64252;51.094;13.714;2023-03-07T01:36:25;17.73;;;7.80;;
75655;SDS011;64252;51.094;13.714;2023-03-07T01:38:56;18.45;;;8.02;;
75655;SDS011;64252;51.094;13.714;2023-03-07T01:42:01;16.08;;;7.03;;
75655;SDS011;64252;51.094;13.714;2023-03-07T01:44:28;14.82;;;7.35;;
75655;SDS011;64252;51.094;13.714;2023-03-07T01:46:55;15.48;;;7.20;;
75655;SDS011;64252;51.094;13.714;2023-03-07T01:49:38;19.27;;;8.00;;
75655;SDS011;64252;51.094;13.714;2023-03-07T01:52:23;16.08;;;7.50;;
75655;SDS011;64252;51.094;13.714;2023-03-07T01:55:15;15.73;;;5.75;;
75655;SDS011;64252;51.094;13.714;2023-03-07T01:57:46;16.02;;;6.50;;
75655;SDS011;64252;51.094;13.714;2023-03-07T02:00:16;19.42;;;8.77;;
75655;SDS011;64252;51.094;13.714;2023-03-07T02:02:52;19.48;;;8.43;;
75655;SDS011;64252;51.094;13.714;2023-03-07T02:05:29;16.60;;;7.90;;
75655;SDS011;64252;51.094;13.714;2023-03-07T02:07:59;14.55;;;6.85;;
75655;SDS011;64252;51.094;13.714;2023-03-07T02:10:29;15.02;;;6.57;;
75655;SDS011;64252;51.094;13.714;2023-03-07T02:12:57;21.83;;;10.13;;
75655;SDS011;64252;51.094;13.714;2023-03-07T02:15:23;16.55;;;7.07;;
75655;SDS011;64252;51.094;13.714;2023-03-07T02:17:49;21.40;;;9.05;;
75655;SDS011;64252;51.094;13.714;2023-03-07T02:23:20;23.85;;;10.10;;
75655;SDS011;64252;51.094;13.714;2023-03-07T02:26:01;23.17;;;9.43;;
75655;SDS011;64252;51.094;13.714;2023-03-07T02:28:31;22.10;;;8.52;;
75655;SDS011;64252;51.094;13.714;2023-03-07T02:31:00;21.38;;;9.52;;
75655;SDS011;64252;51.094;13.714;2023-03-07T02:33:31;18.50;;;8.52;;
75655;SDS011;64252;51.094;13.714;2023-03-07T02:36:04;22.80;;;9.77;;
75655;SDS011;64252;51.094;13.714;2023-03-07T02:38:37;17.88;;;8.23;;
75655;SDS011;64252;51.094;13.714;2023-03-07T02:41:07;21.20;;;9.05;;
75655;SDS011;64252;51.094;13.714;2023-03-07T02:43:37;21.13;;;9.25;;
75655;SDS011;64252;51.094;13.714;2023-03-07T02:46:03;22.88;;;9.10;;
75655;SDS011;64252;51.094;13.714;2023-03-07T02:48:28;18.95;;;7.80;;
75655;SDS011;64252;51.094;13.714;2023-03-07T02:50:54;17.52;;;8.07;;
75655;SDS011;64252;51.094;13.714;2023-03-07T02:53:20;17.55;;;8.25;;
75655;SDS011;64252;51.094;13.714;2023-03-07T02:55:45;17.63;;;8.52;;
75655;SDS011;64252;51.094;13.714;2023-03-07T02:58:11;19.65;;;8.45;;
75655;SDS011;64252;51.094;13.714;2023-03-07T03:00:37;21.17;;;9.57;;
75655;SDS011;64252;51.094;13.714;2023-03-07T03:03:03;18.45;;;8.13;;
75655;SDS011;64252;51.094;13.714;2023-03-07T03:05:28;19.42;;;8.80;;
75655;SDS011;64252;51.094;13.714;2023-03-07T03:07:54;20.85;;;8.07;;
75655;SDS011;64252;51.094;13.714;2023-03-07T03:10:22;18.48;;;8.38;;
75655;SDS011;64252;51.094;13.714;2023-03-07T03:12:47;21.08;;;8.70;;
75655;SDS011;64252;51.094;13.714;2023-03-07T03:15:14;18.13;;;7.07;;
75655;SDS011;64252;51.094;13.714;2023-03-07T03:17:39;20.60;;;10.05;;
75655;SDS011;64252;51.094;13.714;2023-03-07T03:20:05;19.20;;;8.98;;
75655;SDS011;64252;51.094;13.714;2023-03-07T03:22:34;22.58;;;10.88;;
75655;SDS011;64252;51.094;13.714;2023-03-07T03:25:02;19.75;;;9.00;;
75655;SDS011;64252;51.094;13.714;2023-03-07T03:27:31;19.67;;;9.90;;
75655;SDS011;64252;51.094;13.714;2023-03-07T03:29:57;16.63;;;7.15;;
75655;SDS011;64252;51.094;13.714;2023-03-07T03:32:22;16.92;;;7.70;;
75655;SDS011;64252;51.094;13.714;2023-03-07T03:34:48;18.83;;;8.68;;
75655;SDS011;64252;51.094;13.714;2023-03-07T03:37:14;19.88;;;8.70;;
75655;SDS011;64252;51.094;13.714;2023-03-07T03:39:39;24.63;;;10.75;;
75655;SDS011;64252;51.094;13.714;2023-03-07T03:42:05;21.10;;;9.68;;
75655;SDS011;64252;51.094;13.714;2023-03-07T03:44:31;19.92;;;9.68;;
75655;SDS011;64252;51.094;13.714;2023-03-07T03:46:56;22.50;;;10.02;;
75655;SDS011;64252;51.094;13.714;2023-03-07T03:49:23;17.55;;;8.38;;
75655;SDS011;64252;51.094;13.714;2023-03-07T03:51:50;23.30;;;10.23;;
75655;SDS011;64252;51.094;13.714;2023-03-07T03:54:16;18.48;;;8.73;;
75655;SDS011;64252;51.094;13.714;2023-03-07T03:56:42;15.80;;;7.70;;
75655;SDS011;64252;51.094;13.714;2023-03-07T03:59:07;20.90;;;9.45;;
75655;SDS011;64252;51.094;13.714;2023-03-07T04:01:33;18.67;;;9.32;;
75655;SDS011;64252;51.094;13.714;2023-03-07T04:03:58;19.13;;;9.10;;
75655;SDS011;64252;51.094;13.714;2023-03-07T04:06:26;15.20;;;7.45;;
75655;SDS011;64252;51.094;13.714;2023-03-07T04:08:54;15.00;;;7.80;;
75655;SDS011;64252;51.094;13.714;2023-03-07T04:11:21;18.48;;;8.00;;
75655;SDS011;64252;51.094;13.714;2023-03-07T04:13:48;17.25;;;8.63;;
75655;SDS011;64252;51.094;13.714;2023-03-07T04:16:15;14.73;;;7.40;;
75655;SDS011;64252;51.094;13.714;2023-03-07T04:18:41;17.50;;;8.43;;
75655;SDS011;64252;51.094;13.714;2023-03-07T04:21:07;16.23;;;7.85;;
75655;SDS011;64252;51.094;13.714;2023-03-07T04:23:36;16.83;;;7.57;;
75655;SDS011;64252;51.094;13.714;2023-03-07T04:26:03;18.30;;;8.68;;
75655;SDS011;64252;51.094;13.714;2023-03-07T04:28:35;14.30;;;6.97;;
75655;SDS011;64252;51.094;13.714;2023-03-07T04:31:21;12.02;;;5.95;;
75655;SDS011;64252;51.094;13.714;2023-03-07T04:33:49;18.15;;;8.90;;
75655;SDS011;64252;51.094;13.714;2023-03-07T04:36:15;19.35;;;8.68;;
75655;SDS011;64252;51.094;13.714;2023-03-07T04:38:41;15.02;;;7.43;;
75655;SDS011;64252;51.094;13.714;2023-03-07T04:41:11;17.48;;;7.85;;
75655;SDS011;64252;51.094;13.714;2023-03-07T04:43:39;20.25;;;7.97;;
75655;SDS011;64252;51.094;13.714;2023-03-07T04:46:04;13.10;;;6.30;;
75655;SDS011;64252;51.094;13.714;2023-03-07T04:48:30;15.50;;;7.57;;
75655;SDS011;64252;51.094;13.714;2023-03-07T04:50:55;17.52;;;7.97;;
75655;SDS011;64252;51.094;13.714;2023-03-07T04:53:21;13.65;;;6.38;;
75655;SDS011;64252;51.094;13.714;2023-03-07T04:55:47;13.73;;;6.65;;
75655;SDS011;64252;51.094;13.714;2023-03-07T04:58:13;13.10;;;6.07;;
75655;SDS011;64252;51.094;13.714;2023-03-07T05:00:40;11.23;;;5.25;;
75655;SDS011;64252;51.094;13.714;2023-03-07T05:03:07;16.05;;;7.00;;
75655;SDS011;64252;51.094;13.714;2023-03-07T05:05:34;14.95;;;6.65;;
75655;SDS011;64252;51.094;13.714;2023-03-07T05:08:00;18.90;;;8.57;;
75655;SDS011;64252;51.094;13.714;2023-03-07T05:10:26;14.27;;;6.68;;
75655;SDS011;64252;51.094;13.714;2023-03-07T05:12:53;11.80;;;5.97;;
75655;SDS011;64252;51.094;13.714;2023-03-07T05:15:18;13.50;;;6.28;;
75655;SDS011;64252;51.094;13.714;2023-03-07T05:17:44;13.57;;;6.03;;
75655;SDS011;64252;51.094;13.714;2023-03-07T05:20:10;14.10;;;6.82;;
75655;SDS011;64252;51.094;13.714;2023-03-07T05:22:37;14.35;;;6.65;;
75655;SDS011;64252;51.094;13.714;2023-03-07T05:25:04;14.43;;;6.88;;
75655;SDS011;64252;51.094;13.714;2023-03-07T05:27:30;14.38;;;6.40;;
75655;SDS011;64252;51.094;13.714;2023-03-07T05:29:56;14.60;;;6.88;;
75655;SDS011;64252;51.094;13.714;2023-03-07T05:32:21;13.13;;;6.70;;
75655;SDS011;64252;51.094;13.714;2023-03-07T05:34:48;16.40;;;7.22;;
75655;SDS011;64252;51.094;13.714;2023-03-07T05:37:16;12.90;;;6.40;;
75655;SDS011;64252;51.094;13.714;2023-03-07T05:39:42;13.45;;;5.85;;
75655;SDS011;64252;51.094;13.714;2023-03-07T05:42:08;11.77;;;5.53;;
75655;SDS011;64252;51.094;13.714;2023-03-07T05:44:37;12.30;;;6.38;;
75655;SDS011;64252;51.094;13.714;2023-03-07T05:47:04;12.50;;;6.20;;
75655;SDS011;64252;51.094;13.714;2023-03-07T05:49:30;12.73;;;6.13;;
75655;SDS011;64252;51.094;13.714;2023-03-07T05:51:57;13.02;;;5.70;;
75655;SDS011;64252;51.094;13.714;2023-03-07T05:54:22;12.38;;;5.80;;
75655;SDS011;64252;51.094;13.714;2023-03-07T05:56:48;14.57;;;6.40;;
75655;SDS011;64252;51.094;13.714;2023-03-07T05:59:23;15.32;;;6.60;;
75655;SDS011;64252;51.094;13.714;2023-03-07T06:01:50;12.68;;;6.57;;
75655;SDS011;64252;51.094;13.714;2023-03-07T06:04:17;12.80;;;5.95;;
75655;SDS011;64252;51.094;13.714;2023-03-07T06:06:42;15.38;;;6.90;;
75655;SDS011;64252;51.094;13.714;2023-03-07T06:09:09;13.20;;;6.38;;
75655;SDS011;64252;51.094;13.714;2023-03-07T06:11:35;13.93;;;6.10;;
75655;SDS011;64252;51.094;13.714;2023-03-07T06:14:02;12.98;;;6.63;;
75655;SDS011;64252;51.094;13.714;2023-03-07T06:16:27;13.40;;;6.57;;
75655;SDS011;64252;51.094;13.714;2023-03-07T06:18:54;13.85;;;6.93;;
75655;SDS011;64252;51.094;13.714;2023-03-07T06:21:20;13.38;;;5.70;;
75655;SDS011;64252;51.094;13.714;2023-03-07T06:23:45;13.40;;;6.10;;
75655;SDS011;64252;51.094;13.714;2023-03-07T06:26:15;14.23;;;5.85;;
75655;SDS011;64252;51.094;13.714;2023-03-07T06:28:44;12.57;;;6.47;;
75655;SDS011;64252;51.094;13.714;2023-03-07T06:31:13;12.85;;;6.10;;
75655;SDS011;64252;51.094;13.714;2023-03-07T06:33:40;13.45;;;5.82;;
75655;SDS011;64252;51.094;13.714;2023-03-07T06:36:07;11.65;;;5.40;;
75655;SDS011;64252;51.094;13.714;2023-03-07T06:38:34;12.30;;;6.10;;
75655;SDS011;64252;51.094;13.714;2023-03-07T06:41:00;14.50;;;6.50;;
75655;SDS011;64252;51.094;13.714;2023-03-07T06:43:26;12.25;;;6.10;;
75655;SDS011;64252;51.094;13.714;2023-03-07T06:45:52;14.98;;;6.60;;
75655;SDS011;64252;51.094;13.714;2023-03-07T06:48:21;12.63;;;6.07;;
75655;SDS011;64252;51.094;13.714;2023-03-07T06:50:46;11.98;;;6.45;;
75655;SDS011;64252;51.094;13.714;2023-03-07T06:53:13;16.30;;;7.22;;
75655;SDS011;64252;51.094;13.714;2023-03-07T06:55:39;12.32;;;5.70;;
75655;SDS011;64252;51.094;13.714;2023-03-07T06:58:06;16.92;;;7.45;;
75655;SDS011;64252;51.094;13.714;2023-03-07T07:00:32;22.75;;;12.60;;
75655;SDS011;64252;51.094;13.714;2023-03-07T07:02:57;16.17;;;7.90;;
75655;SDS011;64252;51.094;13.714;2023-03-07T07:05:23;14.90;;;6.50;;
75655;SDS011;64252;51.094;13.714;2023-03-07T07:07:49;18.55;;;8.77;;
75655;SDS011;64252;51.094;13.714;2023-03-07T07:10:15;28.05;;;12.80;;
75655;SDS011;64252;51.094;13.714;2023-03-07T07:12:41;16.88;;;7.78;;
75655;SDS011;64252;51.094;13.714;2023-03-07T07:15:07;14.35;;;6.88;;
75655;SDS011;64252;51.094;13.714;2023-03-07T07:17:34;12.85;;;6.35;;
75655;SDS011;64252;51.094;13.714;2023-03-07T07:20:03;11.07;;;5.60;;
75655;SDS011;64252;51.094;13.714;2023-03-07T07:22:30;11.35;;;5.63;;
75655;SDS011;64252;51.094;13.714;2023-03-07T07:24:55;12.13;;;5.30;;
75655;SDS011;64252;51.094;13.714;2023-03-07T07:27:22;12.68;;;5.68;;
75655;SDS011;64252;51.094;13.714;2023-03-07T07:29:48;12.70;;;6.72;;
75655;SDS011;64252;51.094;13.714;2023-03-07T07:32:13;10.45;;;5.07;;
75655;SDS011;64252;51.094;13.714;2023-03-07T07:34:39;12.88;;;6.93;;
75655;SDS011;64252;51.094;13.714;2023-03-07T07:37:05;12.15;;;5.93;;
75655;SDS011;64252;51.094;13.714;2023-03-07T07:39:31;13.40;;;5.68;;
75655;SDS011;64252;51.094;13.714;2023-03-07T07:41:56;10.60;;;5.13;;
75655;SDS011;64252;51.094;13.714;2023-03-07T07:44:27;12.60;;;5.22;;
75655;SDS011;64252;51.094;13.714;2023-03-07T07:46:57;9.88;;;4.80;;
75655;SDS011;64252;51.094;13.714;2023-03-07T07:49:23;9.93;;;4.70;;
75655;SDS011;64252;51.094;13.714;2023-03-07T07:51:49;10.45;;;4.97;;
75655;SDS011;64252;51.094;13.714;2023-03-07T07:54:14;10.07;;;5.05;;
75655;SDS011;64252;51.094;13.714;2023-03-07T07:56:40;8.30;;;4.30;;
75655;SDS011;64252;51.094;13.714;2023-03-07T07:59:05;9.23;;;4.60;;
75655;SDS011;64252;51.094;13.714;2023-03-07T08:01:31;10.10;;;4.85;;
75655;SDS011;64252;51.094;13.714;2023-03-07T08:03:57;8.68;;;4.82;;
75655;SDS011;64252;51.094;13.714;2023-03-07T08:06:24;8.95;;;4.53;;
75655;SDS011;64252;51.094;13.714;2023-03-07T08:08:51;9.07;;;4.20;;
75655;SDS011;64252;51.094;13.714;2023-03-07T08:11:17;9.27;;;4.35;;
75655;SDS011;64252;51.094;13.714;2023-03-07T08:13:44;8.45;;;3.83;;
75655;SDS011;64252;51.094;13.714;2023-03-07T08:16:14;8.85;;;3.53;;
75655;SDS011;64252;51.094;13.714;2023-03-07T08:18:41;10.10;;;4.55;;
75655;SDS011;64252;51.094;13.714;2023-03-07T08:21:08;7.30;;;3.50;;
75655;SDS011;64252;51.094;13.714;2023-03-07T08:23:34;7.63;;;4.20;;
75655;SDS011;64252;51.094;13.714;2023-03-07T08:26:04;6.07;;;2.95;;
75655;SDS011;64252;51.094;13.714;2023-03-07T08:28:31;6.95;;;3.67;;
75655;SDS011;64252;51.094;13.714;2023-03-07T08:30:57;7.63;;;3.88;;
75655;SDS011;64252;51.094;13.714;2023-03-07T08:33:23;7.45;;;3.38;;
75655;SDS011;64252;51.094;13.714;2023-03-07T08:35:48;7.50;;;3.45;;
75655;SDS011;64252;51.094;13.714;2023-03-07T08:38:14;6.38;;;2.85;;
75655;SDS011;64252;51.094;13.714;2023-03-07T08:40:40;7.25;;;3.03;;
75655;SDS011;64252;51.094;13.714;2023-03-07T08:43:06;7.32;;;3.45;;
75655;SDS011;64252;51.094;13.714;2023-03-07T08:45:31;6.47;;;3.08;;
75655;SDS011;64252;51.094;13.714;2023-03-07T08:48:00;7.30;;;3.58;;
75655;SDS011;64252;51.094;13.714;2023-03-07T08:50:26;6.35;;;3.10;;
75655;SDS011;64252;51.094;13.714;2023-03-07T08:52:53;5.93;;;2.80;;
75655;SDS011;64252;51.094;13.714;2023-03-07T08:55:19;5.78;;;2.80;;
75655;SDS011;64252;51.094;13.714;2023-03-07T08:57:45;7.75;;;3.25;;
75655;SDS011;64252;51.094;13.714;2023-03-07T09:00:11;5.88;;;2.97;;
75655;SDS011;64252;51.094;13.714;2023-03-07T09:02:38;5.05;;;2.70;;
75655;SDS011;64252;51.094;13.714;2023-03-07T09:05:04;6.03;;;2.95;;
75655;SDS011;64252;51.094;13.714;2023-03-07T09:07:29;5.70;;;2.75;;
75655;SDS011;64252;51.094;13.714;2023-03-07T09:09:55;6.25;;;3.15;;
75655;SDS011;64252;51.094;13.714;2023-03-07T09:12:21;7.25;;;3.00;;
75655;SDS011;64252;51.094;13.714;2023-03-07T09:14:47;6.30;;;3.20;;
75655;SDS011;64252;51.094;13.714;2023-03-07T09:17:12;5.75;;;2.88;;
75655;SDS011;64252;51.094;13.714;2023-03-07T09:19:38;6.43;;;3.25;;
75655;SDS011;64252;51.094;13.714;2023-03-07T09:22:04;6.28;;;3.00;;
75655;SDS011;64252;51.094;13.714;2023-03-07T09:24:29;6.18;;;3.00;;
75655;SDS011;64252;51.094;13.714;2023-03-07T09:26:56;6.32;;;2.97;;
75655;SDS011;64252;51.094;13.714;2023-03-07T09:29:22;6.95;;;3.35;;
75655;SDS011;64252;51.094;13.714;2023-03-07T09:31:47;6.13;;;3.13;;
75655;SDS011;64252;51.094;13.714;2023-03-07T09:34:13;5.80;;;2.63;;
75655;SDS011;64252;51.094;13.714;2023-03-07T09:36:38;6.18;;;3.15;;
75655;SDS011;64252;51.094;13.714;2023-03-07T09:39:04;6.55;;;2.92;;
75655;SDS011;64252;51.094;13.714;2023-03-07T09:50:47;6.88;;;3.30;;
75655;SDS011;64252;51.094;13.714;2023-03-07T09:56:02;6.43;;;3.15;;
75655;SDS011;64252;51.094;13.714;2023-03-07T09:58:32;6.50;;;3.22;;
75655;SDS011;64252;51.094;13.714;2023-03-07T10:01:06;7.00;;;3.83;;
75655;SDS011;64252;51.094;13.714;2023-03-07T10:03:53;7.43;;;3.88;;
75655;SDS011;64252;51.094;13.714;2023-03-07T10:06:41;6.38;;;3.55;;
75655;SDS011;64252;51.094;13.714;2023-03-07T10:09:13;8.93;;;3.70;;
75655;SDS011;64252;51.094;13.714;2023-03-07T10:12:07;9.23;;;4.22;;
75655;SDS011;64252;51.094;13.714;2023-03-07T10:23:43;7.75;;;3.83;;
75655;SDS011;64252;51.094;13.714;2023-03-07T10:26:34;6.78;;;3.30;;
75655;SDS011;64252;51.094;13.714;2023-03-07T10:29:14;7.68;;;3.90;;
75655;SDS011;64252;51.094;13.714;2023-03-07T10:31:49;7.25;;;3.92;;
75655;SDS011;64252;51.094;13.714;2023-03-07T10:34:23;7.05;;;3.50;;
75655;SDS011;64252;51.094;13.714;2023-03-07T10:36:51;7.38;;;3.80;;
75655;SDS011;64252;51.094;13.714;2023-03-07T10:39:24;6.93;;;3.67;;
75655;SDS011;64252;51.094;13.714;2023-03-07T10:41:51;7.68;;;4.07;;
75655;SDS011;64252;51.094;13.714;2023-03-07T10:44:18;7.65;;;4.00;;
75655;SDS011;64252;51.094;13.714;2023-03-07T10:46:46;7.80;;;3.83;;
75655;SDS011;64252;51.094;13.714;2023-03-07T10:49:26;8.13;;;3.70;;
75655;SDS011;64252;51.094;13.714;2023-03-07T10:55:28;7.97;;;4.00;;
75655;SDS011;64252;51.094;13.714;2023-03-07T10:58:21;7.68;;;3.72;;
75655;SDS011;64252;51.094;13.714;2023-03-07T11:00:59;8.10;;;3.70;;
75655;SDS011;64252;51.094;13.714;2023-03-07T11:09:22;8.90;;;4.03;;
75655;SDS011;64252;51.094;13.714;2023-03-07T11:11:53;9.40;;;4.57;;
75655;SDS011;64252;51.094;13.714;2023-03-07T11:14:24;7.65;;;4.22;;
75655;SDS011;64252;51.094;13.714;2023-03-07T11:16:54;7.07;;;3.33;;
75655;SDS011;64252;51.094;13.714;2023-03-07T11:22:01;6.72;;;3.60;;
75655;SDS011;64252;51.094;13.714;2023-03-07T11:24:30;9.18;;;3.70;;
75655;SDS011;64252;51.094;13.714;2023-03-07T11:27:15;8.27;;;4.22;;
75655;SDS011;64252;51.094;13.714;2023-03-07T11:29:55;7.13;;;3.72;;
75655;SDS011;64252;51.094;13.714;2023-03-07T11:32:50;6.78;;;3.92;;
75655;SDS011;64252;51.094;13.714;2023-03-07T11:35:21;7.10;;;3.67;;
75655;SDS011;64252;51.094;13.714;2023-03-07T11:40:50;6.50;;;3.33;;
75655;SDS011;64252;51.094;13.714;2023-03-07T11:46:10;6.13;;;3.22;;
75655;SDS011;64252;51.094;13.714;2023-03-07T11:48:58;7.07;;;3.42;;
75655;SDS011;64252;51.094;13.714;2023-03-07T12:00:35;8.02;;;3.50;;
75655;SDS011;64252;51.094;13.714;2023-03-07T12:09:04;8.15;;;3.92;;
75655;SDS011;64252;51.094;13.714;2023-03-07T12:20:06;6.93;;;3.75;;
75655;SDS011;64252;51.094;13.714;2023-03-07T12:25:43;8.88;;;3.80;;
75655;SDS011;64252;51.094;13.714;2023-03-07T12:28:16;7.75;;;3.40;;
75655;SDS011;64252;51.094;13.714;2023-03-07T12:36:11;6.57;;;3.50;;
75655;SDS011;64252;51.094;13.714;2023-03-07T12:39:08;6.63;;;4.00;;
75655;SDS011;64252;51.094;13.714;2023-03-07T12:41:50;9.18;;;3.60;;
75655;SDS011;64252;51.094;13.714;2023-03-07T12:44:39;6.32;;;3.28;;
75655;SDS011;64252;51.094;13.714;2023-03-07T12:49:53;7.03;;;3.85;;
75655;SDS011;64252;51.094;13.714;2023-03-07T12:55:44;8.02;;;3.58;;
75655;SDS011;64252;51.094;13.714;2023-03-07T13:00:57;7.10;;;3.60;;
75655;SDS011;64252;51.094;13.714;2023-03-07T13:05:56;8.02;;;4.55;;
75655;SDS011;64252;51.094;13.714;2023-03-07T13:08:22;7.25;;;3.80;;
75655;SDS011;64252;51.094;13.714;2023-03-07T13:10:48;8.00;;;3.97;;
75655;SDS011;64252;51.094;13.714;2023-03-07T13:16:05;7.95;;;4.15;;
75655;SDS011;64252;51.094;13.714;2023-03-07T13:18:31;7.22;;;3.55;;
75655;SDS011;64252;51.094;13.714;2023-03-07T13:21:07;9.18;;;4.13;;
75655;SDS011;64252;51.094;13.714;2023-03-07T13:23:34;6.30;;;3.25;;
75655;SDS011;64252;51.094;13.714;2023-03-07T13:26:04;8.73;;;4.10;;
75655;SDS011;64252;51.094;13.714;2023-03-07T13:28:38;9.13;;;4.13;;
75655;SDS011;64252;51.094;13.714;2023-03-07T13:31:10;7.25;;;4.05;;
75655;SDS011;64252;51.094;13.714;2023-03-07T13:33:39;8.63;;;4.18;;
75655;SDS011;64252;51.094;13.714;2023-03-07T13:36:11;8.95;;;4.68;;
75655;SDS011;64252;51.094;13.714;2023-03-07T13:41:46;7.53;;;3.72;;
75655;SDS011;64252;51.094;13.714;2023-03-07T13:44:36;9.32;;;4.38;;
75655;SDS011;64252;51.094;13.714;2023-03-07T13:52:58;9.00;;;3.97;;
75655;SDS011;64252;51.094;13.714;2023-03-07T13:55:27;7.10;;;3.75;;
75655;SDS011;64252;51.094;13.714;2023-03-07T13:57:57;7.65;;;3.95;;
75655;SDS011;64252;51.094;13.714;2023-03-07T14:00:30;11.48;;;4.13;;
75655;SDS011;64252;51.094;13.714;2023-03-07T14:02:58;10.63;;;4.80;;
75655;SDS011;64252;51.094;13.714;2023-03-07T14:05:25;10.57;;;4.78;;
75655;SDS011;64252;51.094;13.714;2023-03-07T14:07:51;8.45;;;4.40;;
75655;SDS011;64252;51.094;13.714;2023-03-07T14:10:22;8.32;;;4.07;;
75655;SDS011;64252;51.094;13.714;2023-03-07T14:15:46;7.07;;;4.13;;
75655;SDS011;64252;51.094;13.714;2023-03-07T14:21:03;7.55;;;3.85;;
75655;SDS011;64252;51.094;13.714;2023-03-07T14:26:24;8.73;;;3.90;;
75655;SDS011;64252;51.094;13.714;2023-03-07T14:28:58;7.47;;;3.90;;
75655;SDS011;64252;51.094;13.714;2023-03-07T14:31:29;6.65;;;3.85;;
75655;SDS011;64252;51.094;13.714;2023-03-07T14:39:20;7.90;;;4.20;;
75655;SDS011;64252;51.094;13.714;2023-03-07T14:52:32;8.05;;;3.60;;
75655;SDS011;64252;51.094;13.714;2023-03-07T14:54:59;7.63;;;4.05;;
75655;SDS011;64252;51.094;13.714;2023-03-07T14:57:38;6.53;;;3.28;;
75655;SDS011;64252;51.094;13.714;2023-03-07T15:02:47;8.60;;;3.90;;
75655;SDS011;64252;51.094;13.714;2023-03-07T15:08:18;7.00;;;3.63;;
75655;SDS011;64252;51.094;13.714;2023-03-07T15:10:48;7.30;;;3.60;;
75655;SDS011;64252;51.094;13.714;2023-03-07T15:21:40;5.88;;;3.45;;
75655;SDS011;64252;51.094;13.714;2023-03-07T15:24:15;6.22;;;3.40;;
75655;SDS011;64252;51.094;13.714;2023-03-07T15:26:47;6.25;;;3.10;;
75655;SDS011;64252;51.094;13.714;2023-03-07T15:29:19;6.90;;;2.90;;
75655;SDS011;64252;51.094;13.714;2023-03-07T15:31:54;6.10;;;2.83;;
75655;SDS011;64252;51.094;13.714;2023-03-07T15:34:23;6.53;;;3.10;;
75655;SDS011;64252;51.094;13.714;2023-03-07T15:36:51;5.70;;;2.78;;
75655;SDS011;64252;51.094;13.714;2023-03-07T15:42:07;5.90;;;3.00;;
75655;SDS011;64252;51.094;13.714;2023-03-07T15:44:55;6.38;;;2.83;;
75655;SDS011;64252;51.094;13.714;2023-03-07T15:47:25;8.05;;;3.17;;
75655;SDS011;64252;51.094;13.714;2023-03-07T15:49:56;5.65;;;2.80;;
75655;SDS011;64252;51.094;13.714;2023-03-07T15:54:59;5.95;;;2.97;;
75655;SDS011;64252;51.094;13.714;2023-03-07T15:57:33;5.40;;;2.78;;
75655;SDS011;64252;51.094;13.714;2023-03-07T16:00:13;6.15;;;3.15;;
75655;SDS011;64252;51.094;13.714;2023-03-07T16:02:48;7.10;;;3.58;;
75655;SDS011;64252;51.094;13.714;2023-03-07T16:07:48;6.05;;;2.80;;
75655;SDS011;64252;51.094;13.714;2023-03-07T16:10:17;8.82;;;3.53;;
75655;SDS011;64252;51.094;13.714;2023-03-07T16:12:43;6.13;;;3.15;;
75655;SDS011;64252;51.094;13.714;2023-03-07T16:15:17;8.13;;;3.35;;
75655;SDS011;64252;51.094;13.714;2023-03-07T16:17:46;6.85;;;3.75;;
75655;SDS011;64252;51.094;13.714;2023-03-07T16:20:18;9.75;;;2.92;;
75655;SDS011;64252;51.094;13.714;2023-03-07T16:22:45;9.95;;;2.78;;
75655;SDS011;64252;51.094;13.714;2023-03-07T16:25:12;7.13;;;3.85;;
75655;SDS011;64252;51.094;13.714;2023-03-07T16:27:39;6.47;;;2.80;;
75655;SDS011;64252;51.094;13.714;2023-03-07T16:30:16;9.13;;;3.33;;
75655;SDS011;64252;51.094;13.714;2023-03-07T16:32:44;6.10;;;2.78;;
75655;SDS011;64252;51.094;13.714;2023-03-07T16:35:16;6.75;;;3.13;;
75655;SDS011;64252;51.094;13.714;2023-03-07T16:37:44;6.50;;;2.83;;
75655;SDS011;64252;51.094;13.714;2023-03-07T16:40:10;8.85;;;2.75;;
75655;SDS011;64252;51.094;13.714;2023-03-07T16:42:37;5.50;;;2.78;;
75655;SDS011;64252;51.094;13.714;2023-03-07T16:45:17;6.55;;;3.05;;
75655;SDS011;64252;51.094;13.714;2023-03-07T16:47:46;6.38;;;3.17;;
75655;SDS011;64252;51.094;13.714;2023-03-07T16:53:30;6.85;;;3.10;;
75655;SDS011;64252;51.094;13.714;2023-03-07T16:55:56;6.55;;;3.25;;
75655;SDS011;64252;51.094;13.714;2023-03-07T16:58:31;5.38;;;3.05;;
75655;SDS011;64252;51.094;13.714;2023-03-07T17:03:25;6.22;;;2.90;;
75655;SDS011;64252;51.094;13.714;2023-03-07T17:05:51;6.25;;;3.20;;